Time;durP1;ratioP1;P1;durP2;ratioP2;P2;SDS_P1;SDS_P2;PMS_P1;PMS_P2;Temp;Humidity;BMP_temperature;BMP_pressure;BME280_temperature;BME280_humidity;BME280_pressure;Samples;Min_cycle;Max_cycle;Signal;HPM_P1;HPM_P2
2023/03/06 00:01:47;;;;;;;;;;;1.20;99.90;;;;;;5077206;28;19924;-80
2023/03/06 00:04:16;;;;;;;;;;;1.20;99.90;;;;;;5070086;28;19931;-80
2023/03/06 00:06:42;;;;;;;;;;;1.20;99.90;;;;;;5064582;28;19936;-81
2023/03/06 00:09:08;;;;;;;;;;;1.20;99.90;;;;;;5075882;28;20028;-80
2023/03/06 00:11:34;;;;;;;;;;;1.20;99.90;;;;;;5061126;28;19983;-80
2023/03/06 00:13:59;;;;;;;;;;;1.20;99.90;;;;;;5079381;28;19967;-81
2023/03/06 00:16:25;;;;;;;;;;;1.20;99.90;;;;;;5077359;28;19928;-81
2023/03/06 00:18:50;;;;;;;;;;;1.20;99.90;;;;;;5061162;28;20011;-80
2023/03/06 00:21:16;;;;;;;;;;;1.20;99.90;;;;;;5060892;28;19924;-80
2023/03/06 00:23:42;;;;;;;;;;;1.20;99.90;;;;;;5079031;28;20503;-81
2023/03/06 00:26:07;;;;;;;;;;;1.20;99.90;;;;;;5061372;28;19928;-81
2023/03/06 00:28:33;;;;;;;;;;;1.20;99.90;;;;;;5077720;28;19925;-81
2023/03/06 00:30:59;;;;;;;;;;;1.20;99.90;;;;;;5062203;28;19931;-81
2023/03/06 00:33:25;;;;;;;;;;;1.20;99.90;;;;;;5077442;28;19991;-81
2023/03/06 00:35:50;;;;;;;;;;;1.20;99.90;;;;;;5062589;28;19924;-81
2023/03/06 00:38:16;;;;;;;;;;;1.20;99.90;;;;;;5060373;28;19945;-81
2023/03/06 00:40:41;;;;;;;;;;;1.20;99.90;;;;;;5095642;28;19931;-81
2023/03/06 00:43:07;;;;;;;;;;;1.20;99.90;;;;;;5060805;28;19991;-81
2023/03/06 00:45:33;;;;;;;;;;;1.20;99.90;;;;;;5061282;28;19924;-81
2023/03/06 00:47:58;;;;;;;;;;;1.20;99.90;;;;;;5078757;28;19939;-81
2023/03/06 00:50:24;;;;;;;;;;;1.20;99.90;;;;;;5060856;28;20307;-81
2023/03/06 00:52:49;;;;;;;;;;;1.20;99.90;;;;;;5062177;28;19924;-80
2023/03/06 00:55:15;;;;;;;;;;;1.30;99.90;;;;;;5060390;28;19924;-80
2023/03/06 00:57:41;;;;;;;;;;;1.30;99.90;;;;;;5078546;28;19924;-81
2023/03/06 01:00:07;;;;;;;;;;;1.30;99.90;;;;;;5076358;28;19943;-80
2023/03/06 01:02:32;;;;;;;;;;;1.30;99.90;;;;;;5061609;28;19987;-80
2023/03/06 01:04:58;;;;;;;;;;;1.30;99.90;;;;;;5078316;28;19927;-80
2023/03/06 01:07:26;;;;;;;;;;;1.40;99.90;;;;;;5077508;28;19949;-81
2023/03/06 01:09:51;;;;;;;;;;;1.40;99.90;;;;;;5095436;28;19928;-80
2023/03/06 01:12:17;;;;;;;;;;;1.40;99.90;;;;;;5076897;28;20014;-81
2023/03/06 01:14:43;;;;;;;;;;;1.40;99.90;;;;;;5061687;28;19924;-81
2023/03/06 01:17:08;;;;;;;;;;;1.50;99.90;;;;;;5076364;28;19928;-80
2023/03/06 01:19:36;;;;;;;;;;;1.50;99.90;;;;;;5061253;28;20436;-80
2023/03/06 01:22:01;;;;;;;;;;;1.50;99.90;;;;;;5079669;28;19928;-80
2023/03/06 01:24:27;;;;;;;;;;;1.60;99.90;;;;;;5059323;28;19971;-80
2023/03/06 01:26:53;;;;;;;;;;;1.60;99.90;;;;;;5065324;28;19927;-80
2023/03/06 01:29:19;;;;;;;;;;;1.60;99.90;;;;;;5079744;28;20034;-81
2023/03/06 01:31:44;;;;;;;;;;;1.60;99.90;;;;;;5072564;28;20016;-80
2023/03/06 01:34:10;;;;;;;;;;;1.70;99.90;;;;;;5059321;28;19924;-81
2023/03/06 01:36:35;;;;;;;;;;;1.70;99.90;;;;;;5065057;28;19975;-81
2023/03/06 01:39:02;;;;;;;;;;;1.70;99.90;;;;;;5064093;28;19928;-81
2023/03/06 01:41:28;;;;;;;;;;;1.70;99.90;;;;;;5051355;28;19975;-80
2023/03/06 01:43:53;;;;;;;;;;;1.60;99.90;;;;;;5081682;28;20355;-81
2023/03/06 01:46:31;;;;;;;;;;;1.70;99.90;;;;;;5063493;28;19928;-81
2023/03/06 01:49:15;;;;;;;;;;;1.70;99.90;;;;;;5069244;28;19925;-81
2023/03/06 01:51:47;;;;;;;;;;;1.70;99.90;;;;;;5077265;28;19928;-81
2023/03/06 01:54:16;;;;;;;;;;;1.70;99.90;;;;;;5090873;28;20401;-81
2023/03/06 01:56:43;;;;;;;;;;;1.70;99.90;;;;;;5081577;28;19924;-81
2023/03/06 01:59:08;;;;;;;;;;;1.70;99.90;;;;;;5079710;28;19955;-81
2023/03/06 02:01:34;;;;;;;;;;;1.70;99.90;;;;;;5081590;28;19931;-80
2023/03/06 02:04:00;;;;;;;;;;;1.70;99.90;;;;;;5063096;28;19924;-81
2023/03/06 02:06:25;;;;;;;;;;;1.70;99.90;;;;;;5063866;28;19978;-81
2023/03/06 02:08:51;;;;;;;;;;;1.80;99.90;;;;;;5092917;28;19931;-81
2023/03/06 02:11:21;;;;;;;;;;;1.80;99.90;;;;;;5080589;28;19928;-81
2023/03/06 02:13:47;;;;;;;;;;;1.90;99.90;;;;;;5081517;28;19934;-80
2023/03/06 02:16:14;;;;;;;;;;;1.90;99.90;;;;;;5079900;28;19932;-81
2023/03/06 02:18:40;;;;;;;;;;;1.90;99.90;;;;;;5064354;28;19928;-81
2023/03/06 02:21:12;;;;;;;;;;;1.90;99.90;;;;;;5092983;28;19947;-81
2023/03/06 02:23:37;;;;;;;;;;;1.90;99.90;;;;;;5077123;28;19978;-81
2023/03/06 02:26:03;;;;;;;;;;;1.90;99.90;;;;;;5080112;28;19924;-81
2023/03/06 02:28:29;;;;;;;;;;;1.90;99.90;;;;;;5079519;28;19970;-81
2023/03/06 02:30:55;;;;;;;;;;;2.00;99.90;;;;;;5080958;28;19924;-81
2023/03/06 02:33:22;;;;;;;;;;;1.90;99.90;;;;;;5095969;28;20006;-81
2023/03/06 02:35:58;;;;;;;;;;;2.00;99.90;;;;;;5081298;28;19924;-81
2023/03/06 02:38:28;;;;;;;;;;;2.00;99.90;;;;;;5079094;28;19924;-81
2023/03/06 02:40:53;;;;;;;;;;;2.00;99.90;;;;;;5064089;28;20492;-80
2023/03/06 02:43:27;;;;;;;;;;;2.00;99.90;;;;;;5106652;27;19936;-80
2023/03/06 02:45:53;;;;;;;;;;;2.00;99.90;;;;;;5081972;28;19935;-80
2023/03/06 02:48:19;;;;;;;;;;;2.10;99.90;;;;;;5081276;28;19924;-80
2023/03/06 02:50:45;;;;;;;;;;;2.20;99.90;;;;;;5078793;28;20011;-81
2023/03/06 02:53:12;;;;;;;;;;;2.10;99.90;;;;;;5079633;28;19932;-81
2023/03/06 02:55:37;;;;;;;;;;;2.20;99.90;;;;;;5077986;28;19934;-81
2023/03/06 02:58:03;;;;;;;;;;;2.20;99.90;;;;;;5078052;28;20015;-81
2023/03/06 03:00:29;;;;;;;;;;;2.20;99.90;;;;;;5088565;28;19928;-81
2023/03/06 03:02:55;;;;;;;;;;;2.20;99.90;;;;;;5072843;28;19980;-81
2023/03/06 03:05:20;;;;;;;;;;;2.30;99.90;;;;;;5057672;28;19930;-81
2023/03/06 03:07:46;;;;;;;;;;;2.30;99.90;;;;;;5057184;28;19924;-82
2023/03/06 03:10:12;;;;;;;;;;;2.30;99.90;;;;;;5062642;28;19928;-82
2023/03/06 03:12:37;;;;;;;;;;;2.30;99.90;;;;;;5085147;28;19983;-82
2023/03/06 03:15:03;;;;;;;;;;;2.30;99.90;;;;;;5076622;28;19935;-82
2023/03/06 03:17:29;;;;;;;;;;;2.40;99.90;;;;;;5067671;28;19925;-82
2023/03/06 03:19:55;;;;;;;;;;;2.40;99.90;;;;;;5059127;28;20298;-81
2023/03/06 03:22:20;;;;;;;;;;;2.40;99.90;;;;;;5078292;28;19928;-80
2023/03/06 03:24:46;;;;;;;;;;;2.50;99.90;;;;;;5077683;28;20352;-80
2023/03/06 03:27:12;;;;;;;;;;;2.50;99.90;;;;;;5079727;28;19951;-80
2023/03/06 03:29:38;;;;;;;;;;;2.50;99.90;;;;;;5071141;28;19928;-79
2023/03/06 03:32:03;;;;;;;;;;;2.50;99.90;;;;;;5079606;28;19924;-80
2023/03/06 03:34:29;;;;;;;;;;;2.50;99.90;;;;;;5077015;28;19924;-80
2023/03/06 03:36:55;;;;;;;;;;;2.50;99.90;;;;;;5073658;28;19925;-80
2023/03/06 03:39:20;;;;;;;;;;;2.50;99.90;;;;;;5057122;28;19931;-79
2023/03/06 03:41:46;;;;;;;;;;;2.50;99.90;;;;;;5071324;28;19971;-79
2023/03/06 03:44:11;;;;;;;;;;;2.50;99.90;;;;;;5069640;28;19956;-79
2023/03/06 03:46:37;;;;;;;;;;;2.40;99.90;;;;;;5061407;28;19932;-79
2023/03/06 03:49:03;;;;;;;;;;;2.50;99.90;;;;;;5067155;28;20298;-80
2023/03/06 03:51:28;;;;;;;;;;;2.50;99.90;;;;;;5128372;27;19931;-80
2023/03/06 03:53:55;;;;;;;;;;;2.50;99.90;;;;;;5062402;28;20426;-80
2023/03/06 03:56:21;;;;;;;;;;;2.50;99.90;;;;;;5062572;28;19924;-80
2023/03/06 03:58:47;;;;;;;;;;;2.50;99.90;;;;;;5061307;28;19978;-80
2023/03/06 04:01:12;;;;;;;;;;;2.50;99.90;;;;;;5062535;28;19946;-81
2023/03/06 04:03:38;;;;;;;;;;;2.50;99.90;;;;;;5077897;28;20006;-81
2023/03/06 04:06:03;;;;;;;;;;;2.50;99.90;;;;;;5094120;28;19924;-81
2023/03/06 04:08:29;;;;;;;;;;;2.50;99.90;;;;;;5064981;28;19970;-81
2023/03/06 04:10:54;;;;;;;;;;;2.50;99.90;;;;;;5078908;28;19979;-81
2023/03/06 04:13:21;;;;;;;;;;;2.50;99.90;;;;;;5078592;28;19963;-82
2023/03/06 04:15:47;;;;;;;;;;;2.50;99.90;;;;;;5079692;28;19949;-81
2023/03/06 04:18:15;;;;;;;;;;;2.50;99.90;;;;;;5082328;28;19924;-81
2023/03/06 04:20:41;;;;;;;;;;;2.50;99.90;;;;;;5096770;28;19924;-81
2023/03/06 04:23:06;;;;;;;;;;;2.60;99.90;;;;;;5062498;28;19946;-81
2023/03/06 04:25:32;;;;;;;;;;;2.60;99.90;;;;;;5077401;28;20406;-81
2023/03/06 04:27:58;;;;;;;;;;;2.60;99.90;;;;;;5061630;28;19924;-81
2023/03/06 04:30:23;;;;;;;;;;;2.60;99.90;;;;;;5061885;28;20003;-81
2023/03/06 04:32:49;;;;;;;;;;;2.60;99.90;;;;;;5078335;28;19924;-81
2023/03/06 04:35:14;;;;;;;;;;;2.60;99.90;;;;;;5062689;28;19984;-81
2023/03/06 04:37:40;;;;;;;;;;;2.60;99.90;;;;;;5077793;28;20406;-81
2023/03/06 04:40:08;;;;;;;;;;;2.60;99.90;;;;;;5061970;28;20297;-81
2023/03/06 04:42:33;;;;;;;;;;;2.70;99.90;;;;;;5094219;28;19939;-80
2023/03/06 04:44:59;;;;;;;;;;;2.70;99.90;;;;;;5078956;28;19924;-81
2023/03/06 04:47:24;;;;;;;;;;;2.70;99.90;;;;;;5077593;28;20383;-80
2023/03/06 04:49:50;;;;;;;;;;;2.70;99.90;;;;;;5077972;28;19924;-80
2023/03/06 04:52:15;;;;;;;;;;;2.70;99.90;;;;;;5062308;28;19946;-81
2023/03/06 04:54:41;;;;;;;;;;;2.70;99.90;;;;;;5076808;28;19924;-80
2023/03/06 04:57:07;;;;;;;;;;;2.70;99.90;;;;;;5079916;28;19967;-80
2023/03/06 04:59:33;;;;;;;;;;;2.60;99.90;;;;;;5080264;28;20018;-80
2023/03/06 05:01:58;;;;;;;;;;;2.60;99.90;;;;;;5065930;28;19959;-81
2023/03/06 05:04:24;;;;;;;;;;;2.60;99.90;;;;;;5064636;28;19994;-80
2023/03/06 05:06:50;;;;;;;;;;;2.60;99.90;;;;;;5062310;28;19925;-81
2023/03/06 05:09:15;;;;;;;;;;;2.60;99.90;;;;;;5062294;28;20306;-80
2023/03/06 05:11:41;;;;;;;;;;;2.50;99.90;;;;;;5097772;28;19928;-81
2023/03/06 05:14:06;;;;;;;;;;;2.50;99.90;;;;;;5065733;28;19931;-80
2023/03/06 05:16:32;;;;;;;;;;;2.50;99.90;;;;;;5080409;28;19924;-81
2023/03/06 05:18:58;;;;;;;;;;;2.60;99.90;;;;;;5065330;28;19930;-80
2023/03/06 05:21:23;;;;;;;;;;;2.60;99.90;;;;;;5064556;28;20321;-80
2023/03/06 05:23:49;;;;;;;;;;;2.60;99.90;;;;;;5065675;28;20349;-80
2023/03/06 05:26:14;;;;;;;;;;;2.60;99.90;;;;;;5065543;28;19931;-80
2023/03/06 05:28:40;;;;;;;;;;;2.50;99.90;;;;;;5080271;28;19931;-81
2023/03/06 05:31:06;;;;;;;;;;;2.50;99.90;;;;;;5065687;28;20009;-80
2023/03/06 05:33:32;;;;;;;;;;;2.50;99.90;;;;;;5080201;28;20720;-81
2023/03/06 05:35:58;;;;;;;;;;;2.50;99.90;;;;;;5065801;28;19931;-80
2023/03/06 05:38:23;;;;;;;;;;;2.40;99.90;;;;;;5063529;28;19924;-80
2023/03/06 05:40:49;;;;;;;;;;;2.40;99.90;;;;;;5067677;28;19924;-80
2023/03/06 05:43:14;;;;;;;;;;;2.30;99.90;;;;;;5081912;28;19969;-80
2023/03/06 05:45:40;;;;;;;;;;;2.30;99.90;;;;;;5080778;28;19924;-80
2023/03/06 05:48:06;;;;;;;;;;;2.10;99.90;;;;;;5065025;28;19932;-80
2023/03/06 05:50:31;;;;;;;;;;;2.00;99.90;;;;;;5080347;28;19924;-80
2023/03/06 05:52:57;;;;;;;;;;;1.90;99.90;;;;;;5081847;28;19957;-80
2023/03/06 05:55:23;;;;;;;;;;;1.80;99.90;;;;;;5080242;28;19963;-80
2023/03/06 05:57:50;;;;;;;;;;;1.70;99.90;;;;;;5080966;28;19953;-80
2023/03/06 06:00:16;;;;;;;;;;;1.70;99.90;;;;;;5079691;28;19938;-80
2023/03/06 06:02:42;;;;;;;;;;;1.70;99.90;;;;;;5078430;28;19924;-80
2023/03/06 06:05:08;;;;;;;;;;;1.60;99.90;;;;;;5064066;28;19934;-80
2023/03/06 06:07:34;;;;;;;;;;;1.60;99.90;;;;;;5057982;28;19992;-80
2023/03/06 06:09:59;;;;;;;;;;;1.50;99.90;;;;;;5095112;28;19924;-80
2023/03/06 06:12:25;;;;;;;;;;;1.40;99.90;;;;;;5078985;28;20375;-80
2023/03/06 06:14:51;;;;;;;;;;;1.40;99.90;;;;;;5081065;28;20645;-80
2023/03/06 06:17:16;;;;;;;;;;;1.30;99.90;;;;;;5080301;28;19995;-80
2023/03/06 06:19:42;;;;;;;;;;;1.20;99.90;;;;;;5096981;28;20019;-80
2023/03/06 06:22:08;;;;;;;;;;;1.20;99.90;;;;;;5080265;28;19928;-79
2023/03/06 06:24:33;;;;;;;;;;;1.10;99.90;;;;;;5096418;28;19923;-80
2023/03/06 06:26:59;;;;;;;;;;;1.10;99.90;;;;;;5064889;28;19928;-80
2023/03/06 06:29:25;;;;;;;;;;;1.10;99.90;;;;;;5079065;28;20402;-80
2023/03/06 06:31:51;;;;;;;;;;;1.10;99.90;;;;;;5081047;28;19939;-80
2023/03/06 06:34:17;;;;;;;;;;;1.10;99.90;;;;;;5079609;28;19944;-79
2023/03/06 06:36:42;;;;;;;;;;;1.10;99.90;;;;;;5063568;28;19924;-79
2023/03/06 06:39:08;;;;;;;;;;;1.10;99.90;;;;;;5075882;28;19981;-79
2023/03/06 06:41:34;;;;;;;;;;;1.10;99.90;;;;;;5069493;28;19928;-79
2023/03/06 06:44:03;;;;;;;;;;;1.20;99.90;;;;;;5080691;28;19924;-79
2023/03/06 06:46:28;;;;;;;;;;;1.30;99.90;;;;;;5079047;28;19928;-80
2023/03/06 06:48:54;;;;;;;;;;;1.30;99.90;;;;;;5063979;28;19935;-80
2023/03/06 06:51:21;;;;;;;;;;;1.50;99.90;;;;;;5062835;28;20100;-79
2023/03/06 06:53:47;;;;;;;;;;;1.60;99.90;;;;;;5063723;28;19939;-80
2023/03/06 06:56:12;;;;;;;;;;;1.70;99.90;;;;;;5063500;28;19924;-79
2023/03/06 06:58:38;;;;;;;;;;;1.70;99.90;;;;;;5062323;28;19923;-80
2023/03/06 07:01:07;;;;;;;;;;;1.80;99.90;;;;;;5080326;28;19988;-79
2023/03/06 07:03:32;;;;;;;;;;;1.80;99.90;;;;;;5078596;28;19924;-80
2023/03/06 07:05:58;;;;;;;;;;;1.80;99.90;;;;;;5097252;28;19928;-80
2023/03/06 07:08:23;;;;;;;;;;;1.80;99.90;;;;;;5078645;28;19928;-80
2023/03/06 07:10:49;;;;;;;;;;;1.80;99.90;;;;;;5067363;28;19932;-80
2023/03/06 07:13:15;;;;;;;;;;;1.70;99.90;;;;;;5072931;28;19924;-80
2023/03/06 07:15:40;;;;;;;;;;;1.60;99.90;;;;;;5090941;28;19924;-80
2023/03/06 07:18:06;;;;;;;;;;;1.60;99.90;;;;;;5084252;28;19928;-80
2023/03/06 07:20:31;;;;;;;;;;;1.50;99.90;;;;;;5058996;28;19928;-80
2023/03/06 07:22:57;;;;;;;;;;;1.60;99.90;;;;;;5059628;28;20496;-80
2023/03/06 07:25:23;;;;;;;;;;;1.70;99.90;;;;;;5078396;28;20432;-80
2023/03/06 07:27:53;;;;;;;;;;;1.80;99.90;;;;;;5060482;28;21358;-81
2023/03/06 07:30:18;;;;;;;;;;;1.90;99.90;;;;;;5062278;28;19931;-80
2023/03/06 07:32:44;;;;;;;;;;;2.10;99.90;;;;;;5079264;28;19928;-80
2023/03/06 07:35:12;;;;;;;;;;;2.20;99.90;;;;;;5079890;28;19959;-80
2023/03/06 07:37:38;;;;;;;;;;;2.20;99.90;;;;;;5078482;28;20006;-80
2023/03/06 07:40:05;;;;;;;;;;;2.30;99.90;;;;;;5068301;28;19964;-80
2023/03/06 07:42:30;;;;;;;;;;;2.40;99.90;;;;;;5092381;28;19935;-80
2023/03/06 07:44:56;;;;;;;;;;;2.70;99.90;;;;;;5080064;28;19924;-80
2023/03/06 07:47:21;;;;;;;;;;;2.90;99.90;;;;;;5095680;28;20420;-80
2023/03/06 07:49:47;;;;;;;;;;;3.00;99.90;;;;;;5061961;28;19928;-80
2023/03/06 07:52:13;;;;;;;;;;;2.90;99.90;;;;;;5062911;28;19928;-80
2023/03/06 07:54:38;;;;;;;;;;;2.90;99.90;;;;;;5078301;28;19927;-80
2023/03/06 07:57:04;;;;;;;;;;;3.10;99.90;;;;;;5063080;28;19970;-81
2023/03/06 07:59:29;;;;;;;;;;;3.20;99.90;;;;;;5077469;28;19924;-80
2023/03/06 08:01:56;;;;;;;;;;;3.30;99.90;;;;;;5062582;28;19932;-80
2023/03/06 08:04:21;;;;;;;;;;;3.60;99.90;;;;;;5078122;28;20398;-80
2023/03/06 08:06:47;;;;;;;;;;;3.80;99.90;;;;;;5061951;28;19954;-80
2023/03/06 08:09:13;;;;;;;;;;;3.90;99.90;;;;;;5078909;28;19931;-80
2023/03/06 08:11:38;;;;;;;;;;;3.90;99.90;;;;;;5077550;28;19928;-80
2023/03/06 08:14:04;;;;;;;;;;;3.90;99.90;;;;;;5063144;28;19924;-80
2023/03/06 08:16:30;;;;;;;;;;;4.10;99.90;;;;;;5077249;28;19928;-80
2023/03/06 08:18:56;;;;;;;;;;;4.10;99.90;;;;;;5079045;28;20293;-80
2023/03/06 08:21:22;;;;;;;;;;;4.10;99.90;;;;;;5077760;28;20287;-80
2023/03/06 08:23:48;;;;;;;;;;;4.20;99.90;;;;;;5079112;28;19959;-80
2023/03/06 08:26:22;;;;;;;;;;;4.20;99.90;;;;;;5079123;28;19967;-80
2023/03/06 08:28:47;;;;;;;;;;;4.20;99.90;;;;;;5060503;28;19963;-80
2023/03/06 08:31:33;;;;;;;;;;;4.10;99.90;;;;;;5105467;28;20433;-80
2023/03/06 08:34:00;;;;;;;;;;;4.10;99.90;;;;;;5067091;28;19924;-80
2023/03/06 08:36:26;;;;;;;;;;;4.20;99.90;;;;;;5095753;28;19928;-81
2023/03/06 08:38:52;;;;;;;;;;;4.20;99.90;;;;;;5077089;28;19924;-80
2023/03/06 08:41:18;;;;;;;;;;;4.40;99.90;;;;;;5062938;28;19935;-82
2023/03/06 08:43:43;;;;;;;;;;;4.60;99.90;;;;;;5061925;28;20015;-81
2023/03/06 08:46:09;;;;;;;;;;;4.90;99.90;;;;;;5053852;28;19924;-82
2023/03/06 08:48:34;;;;;;;;;;;5.00;99.90;;;;;;5102405;28;19928;-81
2023/03/06 08:51:00;;;;;;;;;;;5.10;99.90;;;;;;5060510;28;19928;-81
2023/03/06 08:53:25;;;;;;;;;;;5.40;99.90;;;;;;5061050;28;19946;-82
2023/03/06 08:55:51;;;;;;;;;;;5.60;99.90;;;;;;5072453;28;19928;-81
2023/03/06 08:58:17;;;;;;;;;;;5.80;99.90;;;;;;5075260;28;19928;-82
2023/03/06 09:00:42;;;;;;;;;;;5.80;99.90;;;;;;5059195;28;20374;-82
2023/03/06 09:03:09;;;;;;;;;;;5.80;99.90;;;;;;5054693;28;19953;-81
2023/03/06 09:05:34;;;;;;;;;;;5.80;99.90;;;;;;5103913;28;20007;-82
2023/03/06 09:08:00;;;;;;;;;;;5.90;99.90;;;;;;5073195;28;19975;-82
2023/03/06 09:10:26;;;;;;;;;;;6.30;99.90;;;;;;5106860;28;20345;-81
2023/03/06 09:12:52;;;;;;;;;;;6.40;99.90;;;;;;5097751;28;19935;-81
2023/03/06 09:15:18;;;;;;;;;;;6.50;99.90;;;;;;5075378;28;20011;-82
2023/03/06 09:17:44;;;;;;;;;;;6.50;99.90;;;;;;5078289;28;19996;-82
2023/03/06 09:20:10;;;;;;;;;;;6.60;99.90;;;;;;5060040;28;19924;-82
2023/03/06 09:22:36;;;;;;;;;;;6.50;99.90;;;;;;5062081;28;19924;-82
2023/03/06 09:25:02;;;;;;;;;;;6.60;99.90;;;;;;5075592;28;20007;-82
2023/03/06 09:27:28;;;;;;;;;;;6.60;99.90;;;;;;5078854;28;19949;-83
2023/03/06 09:29:54;;;;;;;;;;;6.60;99.90;;;;;;5050045;28;19963;-83
2023/03/06 09:32:20;;;;;;;;;;;6.60;99.90;;;;;;5073695;28;19930;-83
2023/03/06 09:34:46;;;;;;;;;;;6.70;99.90;;;;;;5058247;28;19979;-82
2023/03/06 09:37:11;;;;;;;;;;;6.90;99.90;;;;;;5076788;28;19930;-83
2023/03/06 09:39:37;;;;;;;;;;;7.00;99.90;;;;;;5070957;28;19929;-83
2023/03/06 09:42:05;;;;;;;;;;;6.90;99.90;;;;;;5070858;28;20314;-83
2023/03/06 09:44:32;;;;;;;;;;;6.90;99.90;;;;;;5068172;28;20008;-83
2023/03/06 09:47:17;;;;;;;;;;;7.10;99.90;;;;;;5096789;28;19928;-83
2023/03/06 09:49:48;;;;;;;;;;;7.30;99.90;;;;;;5069467;28;19935;-83
2023/03/06 09:52:32;;;;;;;;;;;7.70;99.90;;;;;;5076296;28;19979;-83
2023/03/06 09:55:16;;;;;;;;;;;8.50;99.90;;;;;;5069594;28;19935;-84
2023/03/06 09:58:03;;;;;;;;;;;9.00;99.90;;;;;;5078692;28;20337;-83
2023/03/06 10:00:31;;;;;;;;;;;9.40;99.90;;;;;;5069917;28;20398;-83
2023/03/06 10:03:03;;;;;;;;;;;9.80;99.90;;;;;;5105579;28;19924;-83
2023/03/06 10:05:34;;;;;;;;;;;10.10;95.30;;;;;;5070509;28;19947;-83
2023/03/06 10:08:02;;;;;;;;;;;10.40;96.50;;;;;;5068866;28;19924;-83
2023/03/06 10:10:34;;;;;;;;;;;10.50;96.80;;;;;;5068494;28;20046;-83
2023/03/06 10:13:00;;;;;;;;;;;10.60;85.10;;;;;;5079578;28;19924;-83
2023/03/06 10:15:29;;;;;;;;;;;10.70;86.60;;;;;;5097370;28;19924;-83
2023/03/06 10:17:55;;;;;;;;;;;10.60;88.60;;;;;;5078394;28;19975;-83
2023/03/06 10:20:24;;;;;;;;;;;10.50;92.80;;;;;;5062464;28;19924;-83
2023/03/06 10:23:02;;;;;;;;;;;10.50;92.40;;;;;;5075957;28;19924;-83
2023/03/06 10:25:35;;;;;;;;;;;10.60;95.70;;;;;;5066692;28;19935;-83
2023/03/06 10:28:10;;;;;;;;;;;10.10;86.20;;;;;;5067533;28;19931;-82
2023/03/06 10:30:45;;;;;;;;;;;9.90;84.50;;;;;;5102883;28;19935;-82
2023/03/06 10:33:20;;;;;;;;;;;9.60;91.20;;;;;;5094258;28;19954;-83
2023/03/06 10:35:47;;;;;;;;;;;9.30;93.00;;;;;;5073289;28;19972;-83
2023/03/06 10:38:31;;;;;;;;;;;8.90;91.80;;;;;;5074539;28;19935;-83
2023/03/06 10:41:04;;;;;;;;;;;8.70;86.30;;;;;;5066368;28;19931;-83
2023/03/06 10:43:30;;;;;;;;;;;8.60;85.20;;;;;;5081209;28;19928;-82
2023/03/06 10:45:55;;;;;;;;;;;8.40;89.20;;;;;;5061357;28;20436;-83
2023/03/06 10:48:26;;;;;;;;;;;8.20;90.00;;;;;;5094827;28;19924;-82
2023/03/06 10:50:53;;;;;;;;;;;8.00;89.80;;;;;;5075874;28;19925;-83
2023/03/06 10:53:27;;;;;;;;;;;7.80;85.80;;;;;;5089671;28;19939;-84
2023/03/06 10:55:57;;;;;;;;;;;7.60;88.70;;;;;;5077073;28;20383;-83
2023/03/06 10:58:23;;;;;;;;;;;7.40;92.10;;;;;;5078376;28;19931;-83
2023/03/06 11:01:06;;;;;;;;;;;7.30;92.10;;;;;;5079013;28;19925;-83
2023/03/06 11:03:32;;;;;;;;;;;7.20;90.20;;;;;;5078999;28;19928;-83
2023/03/06 11:06:03;;;;;;;;;;;7.10;90.50;;;;;;5065709;28;19978;-83
2023/03/06 11:08:29;;;;;;;;;;;7.10;91.60;;;;;;5079317;28;19925;-82
2023/03/06 11:10:59;;;;;;;;;;;7.10;90.60;;;;;;5066115;28;20027;-83
2023/03/06 11:13:26;;;;;;;;;;;7.20;91.30;;;;;;5099806;28;19940;-83
2023/03/06 11:15:57;;;;;;;;;;;7.20;91.40;;;;;;5076684;28;19985;-83
2023/03/06 11:18:27;;;;;;;;;;;7.30;90.30;;;;;;5097001;28;19928;-83
2023/03/06 11:20:54;;;;;;;;;;;7.50;93.10;;;;;;5095173;28;19931;-83
2023/03/06 11:23:38;;;;;;;;;;;7.80;93.10;;;;;;5078536;28;20244;-83
2023/03/06 11:26:07;;;;;;;;;;;7.90;90.70;;;;;;5096618;28;19974;-84
2023/03/06 11:28:39;;;;;;;;;;;7.80;89.60;;;;;;5077385;28;20017;-84
2023/03/06 11:31:08;;;;;;;;;;;7.80;86.50;;;;;;5080269;28;19935;-84
2023/03/06 11:33:34;;;;;;;;;;;7.80;90.40;;;;;;5077901;28;19924;-83
2023/03/06 11:36:03;;;;;;;;;;;7.70;85.10;;;;;;5079828;28;19924;-83
2023/03/06 11:38:41;;;;;;;;;;;7.60;89.40;;;;;;5078469;28;19924;-83
2023/03/06 11:41:14;;;;;;;;;;;7.50;87.70;;;;;;5078550;28;19924;-84
2023/03/06 11:43:51;;;;;;;;;;;7.50;91.20;;;;;;5094143;28;19950;-83
2023/03/06 11:46:23;;;;;;;;;;;7.60;93.80;;;;;;5097523;28;19955;-83
2023/03/06 11:48:52;;;;;;;;;;;7.60;92.40;;;;;;5072412;28;19949;-84
2023/03/06 11:51:20;;;;;;;;;;;7.60;92.50;;;;;;5064528;28;19935;-83
2023/03/06 11:53:46;;;;;;;;;;;7.60;91.60;;;;;;5070977;28;19925;-83
2023/03/06 11:56:15;;;;;;;;;;;7.50;92.00;;;;;;5102950;28;20370;-83
2023/03/06 11:58:53;;;;;;;;;;;7.30;93.90;;;;;;5072000;28;19925;-83
2023/03/06 12:01:23;;;;;;;;;;;7.20;92.00;;;;;;5074352;28;19924;-83
2023/03/06 12:04:08;;;;;;;;;;;7.20;91.90;;;;;;5100722;28;20007;-84
2023/03/06 12:06:33;;;;;;;;;;;7.00;90.90;;;;;;5094864;28;19924;-83
2023/03/06 12:09:19;;;;;;;;;;;7.10;90.40;;;;;;5079040;28;19924;-82
2023/03/06 12:11:51;;;;;;;;;;;7.30;92.70;;;;;;5063609;28;19926;-81
2023/03/06 12:14:17;;;;;;;;;;;7.60;91.70;;;;;;5079304;28;19924;-81
2023/03/06 12:16:51;;;;;;;;;;;7.90;90.60;;;;;;5077300;28;19994;-81
2023/03/06 12:19:19;;;;;;;;;;;7.80;88.00;;;;;;5078874;28;19924;-81
2023/03/06 12:21:48;;;;;;;;;;;7.90;90.00;;;;;;5079068;28;20008;-81
2023/03/06 12:24:21;;;;;;;;;;;7.90;90.20;;;;;;5078156;28;19981;-81
2023/03/06 12:26:53;;;;;;;;;;;7.90;90.10;;;;;;5074919;28;19983;-81
2023/03/06 12:29:37;;;;;;;;;;;8.10;89.30;;;;;;5076913;28;20020;-81
2023/03/06 12:32:22;;;;;;;;;;;8.20;87.90;;;;;;5078725;28;19931;-81
2023/03/06 12:34:59;;;;;;;;;;;8.50;80.90;;;;;;5078977;28;19924;-80
2023/03/06 12:38:01;;;;;;;;;;;8.60;86.10;;;;;;5062087;28;19936;-81
2023/03/06 12:40:44;;;;;;;;;;;8.80;81.00;;;;;;5022053;28;19925;-81
2023/03/06 12:43:17;;;;;;;;;;;8.90;86.50;;;;;;5064390;28;19946;-81
2023/03/06 12:45:44;;;;;;;;;;;9.20;90.00;;;;;;5077430;28;19977;-81
2023/03/06 12:48:29;;;;;;;;;;;9.30;79.30;;;;;;5071188;28;19924;-81
2023/03/06 12:50:55;;;;;;;;;;;9.30;79.40;;;;;;5073392;28;19946;-81
2023/03/06 12:53:29;;;;;;;;;;;9.10;76.50;;;;;;5079365;28;19924;-81
2023/03/06 12:55:56;;;;;;;;;;;9.10;80.50;;;;;;5078135;28;19924;-81
2023/03/06 12:58:45;;;;;;;;;;;9.10;78.80;;;;;;5077254;28;19924;-81
2023/03/06 13:01:10;;;;;;;;;;;9.30;83.90;;;;;;5070701;28;19950;-81
2023/03/06 13:03:43;;;;;;;;;;;9.20;83.80;;;;;;5077534;28;19928;-82
2023/03/06 13:06:29;;;;;;;;;;;9.20;85.40;;;;;;5095393;28;19928;-82
2023/03/06 13:09:02;;;;;;;;;;;9.00;75.70;;;;;;5078414;28;19946;-81
2023/03/06 13:11:43;;;;;;;;;;;8.90;80.60;;;;;;5077388;28;19928;-81
2023/03/06 13:14:27;;;;;;;;;;;8.90;81.60;;;;;;5078770;28;19932;-81
2023/03/06 13:16:53;;;;;;;;;;;8.80;78.90;;;;;;5060416;28;19928;-81
2023/03/06 13:19:23;;;;;;;;;;;8.80;80.90;;;;;;5108191;28;19971;-82
2023/03/06 13:21:54;;;;;;;;;;;8.70;80.50;;;;;;5082058;28;19928;-81
2023/03/06 13:24:24;;;;;;;;;;;8.70;85.40;;;;;;5080877;28;19928;-82
2023/03/06 13:26:57;;;;;;;;;;;8.60;79.70;;;;;;5082283;28;19946;-81
2023/03/06 13:29:35;;;;;;;;;;;8.50;83.60;;;;;;5080194;28;19925;-81
2023/03/06 13:32:00;;;;;;;;;;;8.40;84.70;;;;;;5081895;28;19930;-82
2023/03/06 13:34:36;;;;;;;;;;;8.40;83.20;;;;;;5081894;28;19959;-81
2023/03/06 13:37:08;;;;;;;;;;;8.30;79.50;;;;;;5081020;28;19924;-82
2023/03/06 13:39:53;;;;;;;;;;;8.30;81.30;;;;;;5074967;28;19966;-81
2023/03/06 13:42:26;;;;;;;;;;;8.30;80.20;;;;;;5075919;28;19928;-82
2023/03/06 13:44:53;;;;;;;;;;;8.40;83.90;;;;;;5081796;28;19924;-81
2023/03/06 13:47:34;;;;;;;;;;;8.60;79.30;;;;;;5081494;28;20302;-81
2023/03/06 13:50:09;;;;;;;;;;;8.50;80.40;;;;;;5131456;27;19924;-81
2023/03/06 13:52:54;;;;;;;;;;;8.40;79.00;;;;;;5081705;28;19924;-82
2023/03/06 13:55:38;;;;;;;;;;;8.30;80.60;;;;;;5080219;28;19940;-82
2023/03/06 13:58:22;;;;;;;;;;;8.40;84.30;;;;;;5080915;28;19931;-81
2023/03/06 14:00:51;;;;;;;;;;;8.30;79.40;;;;;;5099849;28;19962;-82
2023/03/06 14:03:20;;;;;;;;;;;8.20;81.60;;;;;;5079918;28;19924;-82
2023/03/06 14:05:47;;;;;;;;;;;8.10;77.30;;;;;;5081761;28;19968;-82
2023/03/06 14:08:31;;;;;;;;;;;8.00;84.30;;;;;;5079794;28;19931;-81
2023/03/06 14:11:02;;;;;;;;;;;8.00;77.80;;;;;;5080711;28;19935;-82
2023/03/06 14:13:32;;;;;;;;;;;7.90;79.70;;;;;;5118523;27;19962;-81
2023/03/06 14:15:58;;;;;;;;;;;7.90;78.70;;;;;;5079948;28;19928;-82
2023/03/06 14:18:37;;;;;;;;;;;7.80;77.70;;;;;;5081145;28;19969;-82
2023/03/06 14:21:04;;;;;;;;;;;7.80;80.00;;;;;;5079647;28;19924;-82
2023/03/06 14:23:42;;;;;;;;;;;7.70;80.10;;;;;;5081099;28;19924;-82
2023/03/06 14:26:14;;;;;;;;;;;7.70;82.00;;;;;;5081458;28;19928;-81
2023/03/06 14:28:40;;;;;;;;;;;7.70;80.80;;;;;;5078781;28;19935;-82
2023/03/06 14:31:06;;;;;;;;;;;7.60;81.30;;;;;;5081272;28;20748;-81
2023/03/06 14:33:37;;;;;;;;;;;7.50;80.50;;;;;;5079163;28;19924;-81
2023/03/06 14:36:04;;;;;;;;;;;7.50;83.10;;;;;;5098069;28;19987;-82